createdAt,value
2022-09-24T00:01:35.617Z,15.60
2022-09-24T00:04:05.977Z,15.50
2022-09-24T00:06:42.228Z,15.40
2022-09-24T00:09:09.408Z,15.30
2022-09-24T00:11:36.365Z,15.80
2022-09-24T00:14:03.187Z,15.40
2022-09-24T00:16:33.002Z,15.50
2022-09-24T00:19:00.784Z,16.10
2022-09-24T00:21:32.922Z,15.60
2022-09-24T00:24:02.755Z,15.40
2022-09-24T00:26:47.874Z,15.50
2022-09-24T00:29:18.105Z,15.50
2022-09-24T00:31:44.941Z,15.50
2022-09-24T00:34:11.772Z,15.50
2022-09-24T00:36:38.778Z,15.50
2022-09-24T00:39:05.883Z,15.50
2022-09-24T00:41:35.899Z,16.60
2022-09-24T00:44:41.129Z,16.50
2022-09-24T00:47:36.080Z,15.80
2022-09-24T00:50:06.349Z,15.70
2022-09-24T00:52:36.326Z,15.70
2022-09-24T00:55:03.252Z,15.60
2022-09-24T00:57:30.557Z,15.90
2022-09-24T00:59:57.499Z,15.40
2022-09-24T01:02:24.432Z,15.40
2022-09-24T01:04:55.678Z,15.50
2022-09-24T01:07:23.110Z,15.40
2022-09-24T01:09:49.850Z,15.40
2022-09-24T01:13:02.268Z,15.40
2022-09-24T01:15:34.497Z,15.50
2022-09-24T01:18:07.117Z,15.50
2022-09-24T01:20:42.464Z,16.20
2022-09-24T01:23:46.296Z,15.50
2022-09-24T01:26:48.275Z,15.60
2022-09-24T01:29:37.531Z,15.70
2022-09-24T01:32:14.039Z,15.70
2022-09-24T01:34:49.266Z,15.70
2022-09-24T01:37:19.109Z,15.70
2022-09-24T01:39:47.237Z,15.60
2022-09-24T01:42:15.261Z,15.70
2022-09-24T01:44:44.551Z,15.50
2022-09-24T01:47:20.150Z,15.50
2022-09-24T01:49:47.386Z,16.00
2022-09-24T01:52:19.519Z,15.60
2022-09-24T01:54:51.985Z,16.40
2022-09-24T01:57:33.828Z,15.70
2022-09-24T02:00:26.116Z,15.80
2022-09-24T02:03:13.302Z,15.80
2022-09-24T02:05:48.158Z,15.90
2022-09-24T02:08:19.984Z,15.90
2022-09-24T02:11:01.773Z,15.80
2022-09-24T02:13:40.258Z,15.90
2022-09-24T02:16:11.199Z,16.70
2022-09-24T02:18:41.000Z,15.70
2022-09-24T02:21:11.358Z,15.50
2022-09-24T02:23:44.510Z,15.50
2022-09-24T02:26:11.515Z,15.50
2022-09-24T02:28:38.432Z,15.40
2022-09-24T02:31:19.068Z,15.50
2022-09-24T02:34:07.433Z,15.60
2022-09-24T02:36:35.114Z,15.60
2022-09-24T02:39:03.144Z,15.50
2022-09-24T02:41:31.467Z,15.40
2022-09-24T02:43:58.817Z,15.70
2022-09-24T02:46:25.765Z,15.80
2022-09-24T02:48:52.971Z,15.50
2022-09-24T02:51:20.090Z,15.70
2022-09-24T02:53:46.769Z,15.60
2022-09-24T02:56:13.573Z,15.60
2022-09-24T02:58:41.052Z,15.60
2022-09-24T03:01:07.748Z,15.70
2022-09-24T03:03:34.557Z,15.60
2022-09-24T03:06:01.283Z,15.70
2022-09-24T03:08:28.009Z,15.60
2022-09-24T03:10:56.215Z,15.60
2022-09-24T03:13:23.510Z,15.70
2022-09-24T03:15:50.274Z,15.60
2022-09-24T03:18:17.045Z,15.60
2022-09-24T03:20:43.924Z,15.70
2022-09-24T03:23:10.674Z,15.60
2022-09-24T03:25:37.414Z,15.70
2022-09-24T03:28:04.116Z,15.60
2022-09-24T03:30:49.485Z,15.80
2022-09-24T03:33:16.200Z,15.70
2022-09-24T03:35:42.951Z,15.90
2022-09-24T03:38:09.643Z,15.80
2022-09-24T03:40:36.438Z,16.60
2022-09-24T03:43:03.208Z,15.90
2022-09-24T03:45:29.905Z,16.50
2022-09-24T03:47:56.624Z,16.20
2022-09-24T03:50:23.656Z,15.70
2022-09-24T03:52:50.541Z,17.30
2022-09-24T03:55:17.317Z,15.80
2022-09-24T03:57:44.037Z,16.30
2022-09-24T04:00:11.514Z,15.80
2022-09-24T04:02:38.955Z,15.80
2022-09-24T04:05:06.238Z,15.70
2022-09-24T04:07:32.979Z,15.60
2022-09-24T04:09:59.710Z,15.70
2022-09-24T04:12:26.587Z,16.00
2022-09-24T04:14:53.274Z,16.00
2022-09-24T04:17:19.978Z,15.80
2022-09-24T04:19:46.700Z,16.00
2022-09-24T04:22:13.766Z,16.40
2022-09-24T04:24:40.680Z,15.70
2022-09-24T04:27:07.550Z,15.80
2022-09-24T04:29:34.230Z,15.70
2022-09-24T04:32:01.084Z,16.30
2022-09-24T04:34:27.777Z,15.70
2022-09-24T04:36:54.513Z,16.20
2022-09-24T04:39:26.585Z,15.80
2022-09-24T04:41:54.213Z,16.90
2022-09-24T04:44:21.106Z,15.80
2022-09-24T04:46:47.882Z,15.90
2022-09-24T04:49:14.752Z,16.00
2022-09-24T04:51:41.753Z,16.30
2022-09-24T04:54:09.733Z,15.70
2022-09-24T04:56:36.767Z,15.90
2022-09-24T04:59:04.410Z,15.90
2022-09-24T05:01:31.142Z,16.40
2022-09-24T05:03:57.881Z,15.80
2022-09-24T05:06:24.636Z,15.80
2022-09-24T05:08:51.376Z,17.00
2022-09-24T05:11:19.467Z,16.60
2022-09-24T05:13:46.154Z,15.80
2022-09-24T05:16:12.907Z,15.80
2022-09-24T05:18:39.639Z,15.70
2022-09-24T05:21:06.514Z,15.80
2022-09-24T05:23:33.234Z,15.80
2022-09-24T05:26:18.373Z,15.70
2022-09-24T05:28:45.126Z,15.80
2022-09-24T05:31:12.105Z,15.70
2022-09-24T05:33:38.898Z,16.80
2022-09-24T05:36:05.870Z,15.70
2022-09-24T05:38:33.158Z,15.80
2022-09-24T05:41:00.095Z,15.70
2022-09-24T05:43:27.852Z,15.70
2022-09-24T05:45:54.741Z,15.70
2022-09-24T05:48:21.468Z,16.30
2022-09-24T05:50:48.164Z,16.10
2022-09-24T05:53:14.899Z,15.70
2022-09-24T05:55:43.088Z,16.30
2022-09-24T05:58:14.072Z,15.80
2022-09-24T06:00:40.981Z,15.70
2022-09-24T06:03:12.447Z,15.60
2022-09-24T06:05:43.004Z,15.70
2022-09-24T06:08:09.705Z,15.50
2022-09-24T06:10:36.599Z,15.60
2022-09-24T06:13:03.738Z,15.60
2022-09-24T06:15:31.005Z,15.40
2022-09-24T06:17:57.736Z,15.60
2022-09-24T06:20:24.532Z,15.30
2022-09-24T06:22:51.221Z,15.30
2022-09-24T06:25:17.942Z,15.50
2022-09-24T06:27:44.662Z,15.20
2022-09-24T06:30:11.885Z,15.80
2022-09-24T06:32:39.429Z,15.30
2022-09-24T06:35:06.758Z,15.30
2022-09-24T06:37:34.078Z,15.20
2022-09-24T06:40:01.009Z,15.20
2022-09-24T06:42:27.898Z,15.10
2022-09-24T06:44:54.653Z,15.30
2022-09-24T06:47:21.376Z,16.00
2022-09-24T06:49:49.011Z,15.40
2022-09-24T06:52:16.332Z,15.40
2022-09-24T06:54:43.036Z,15.50
2022-09-24T06:57:09.753Z,15.50
2022-09-24T06:59:36.520Z,15.50
2022-09-24T07:02:03.547Z,15.60
2022-09-24T07:04:30.400Z,15.70
2022-09-24T07:07:15.536Z,16.70
2022-09-24T07:09:42.223Z,15.50
2022-09-24T07:12:08.929Z,15.60
2022-09-24T07:14:35.728Z,15.60
2022-09-24T07:17:02.613Z,15.80
2022-09-24T07:19:29.348Z,15.70
2022-09-24T07:21:56.051Z,15.70
2022-09-24T07:24:22.752Z,15.70
2022-09-24T07:26:49.549Z,15.90
2022-09-24T07:29:16.571Z,16.70
2022-09-24T07:31:43.331Z,16.00
2022-09-24T07:34:10.215Z,15.90
2022-09-24T07:36:37.037Z,16.40
2022-09-24T07:39:04.034Z,15.90
2022-09-24T07:41:31.160Z,16.00
2022-09-24T07:43:57.856Z,16.10
2022-09-24T07:46:24.877Z,16.00
2022-09-24T07:48:58.077Z,16.00
2022-09-24T07:51:28.288Z,15.90
2022-09-24T07:53:56.388Z,16.00
2022-09-24T07:56:24.423Z,15.90
2022-09-24T07:58:52.431Z,15.90
2022-09-24T08:01:20.013Z,15.90
2022-09-24T08:03:46.994Z,15.70
2022-09-24T08:06:13.930Z,15.70
2022-09-24T08:08:40.714Z,15.60
2022-09-24T08:11:09.446Z,15.60
2022-09-24T08:13:36.250Z,16.10
2022-09-24T08:16:04.679Z,16.10
2022-09-24T08:18:32.773Z,15.60
2022-09-24T08:21:04.485Z,15.40
2022-09-24T08:23:32.432Z,15.30
2022-09-24T08:26:00.166Z,15.20
2022-09-24T08:28:27.047Z,15.40
2022-09-24T08:30:58.773Z,15.40
2022-09-24T08:33:25.755Z,15.50
2022-09-24T08:35:52.622Z,15.40
2022-09-24T08:38:21.033Z,15.80
2022-09-24T08:40:55.085Z,16.00
2022-09-24T08:43:34.255Z,15.60
2022-09-24T08:46:27.160Z,15.50
2022-09-24T08:48:54.579Z,15.60
2022-09-24T08:51:22.741Z,16.00
2022-09-24T08:53:53.298Z,16.20
2022-09-24T08:56:27.034Z,15.80
2022-09-24T08:59:00.403Z,15.90
2022-09-24T09:01:45.914Z,16.00
2022-09-24T09:04:21.065Z,16.00
2022-09-24T09:07:02.814Z,16.20
2022-09-24T09:09:39.247Z,16.20
2022-09-24T09:12:29.546Z,16.10
2022-09-24T09:15:08.163Z,16.30
2022-09-24T09:17:42.712Z,16.20
2022-09-24T09:20:18.785Z,16.50
2022-09-24T09:22:48.948Z,16.50
2022-09-24T09:25:27.167Z,16.60
2022-09-24T09:28:15.042Z,16.30
2022-09-24T09:30:56.939Z,16.50
2022-09-24T09:33:38.522Z,16.80
2022-09-24T09:36:30.133Z,17.60
2022-09-24T09:39:09.411Z,17.10
2022-09-24T09:41:47.249Z,17.00
2022-09-24T09:44:29.883Z,17.10
2022-09-24T09:47:20.756Z,16.90
2022-09-24T09:49:51.501Z,17.20
2022-09-24T09:52:28.270Z,17.40
2022-09-24T09:54:55.089Z,17.70
2022-09-24T09:57:25.905Z,17.60
2022-09-24T09:59:55.009Z,17.60
2022-09-24T10:02:31.642Z,18.40
2022-09-24T10:05:00.903Z,17.50
2022-09-24T10:07:28.468Z,17.70
2022-09-24T10:10:19.832Z,18.00
2022-09-24T10:12:47.094Z,17.90
2022-09-24T10:15:22.053Z,17.80
2022-09-24T10:17:52.373Z,17.90
2022-09-24T10:20:29.526Z,17.80
2022-09-24T10:23:08.306Z,17.70
2022-09-24T10:25:36.397Z,17.60
2022-09-24T10:28:27.337Z,17.60
2022-09-24T10:31:03.890Z,17.60
2022-09-24T10:33:46.629Z,17.60
2022-09-24T10:36:24.865Z,17.30
2022-09-24T10:39:04.382Z,17.30
2022-09-24T10:41:32.116Z,17.30
2022-09-24T10:44:06.276Z,17.10
2022-09-24T10:46:57.386Z,16.90
2022-09-24T10:49:36.659Z,16.90
2022-09-24T10:52:32.271Z,17.10
2022-09-24T10:55:10.756Z,17.10
2022-09-24T10:57:40.018Z,17.20
2022-09-24T11:00:22.566Z,16.90
2022-09-24T11:03:15.064Z,17.00
2022-09-24T11:05:49.951Z,17.20
2022-09-24T11:08:32.312Z,17.50
2022-09-24T11:10:59.150Z,17.30
2022-09-24T11:13:46.869Z,17.40
2022-09-24T11:16:39.010Z,17.30
2022-09-24T11:19:28.775Z,17.80
2022-09-24T11:22:10.331Z,17.20
2022-09-24T11:24:55.822Z,17.10
2022-09-24T11:27:34.566Z,16.90
2022-09-24T11:30:19.045Z,16.90
2022-09-24T11:33:01.671Z,17.00
2022-09-24T11:36:04.610Z,16.70
2022-09-24T11:38:49.436Z,16.40
2022-09-24T11:41:49.808Z,16.60
2022-09-24T11:44:40.976Z,16.70
2022-09-24T11:47:34.050Z,16.90
2022-09-24T11:50:20.349Z,17.10
2022-09-24T11:52:55.877Z,17.20
2022-09-24T11:55:45.978Z,17.40
2022-09-24T11:58:23.602Z,17.60
2022-09-24T12:00:59.322Z,17.80
2022-09-24T12:03:42.436Z,17.80
2022-09-24T12:06:15.014Z,17.70
2022-09-24T12:08:54.342Z,17.60
2022-09-24T12:11:35.433Z,17.60
2022-09-24T12:14:12.820Z,17.50
2022-09-24T12:16:41.108Z,17.60
2022-09-24T12:19:29.453Z,18.10
2022-09-24T12:21:58.371Z,17.80
2022-09-24T12:24:34.769Z,17.60
2022-09-24T12:27:14.182Z,17.70
2022-09-24T12:30:13.195Z,17.70
2022-09-24T12:32:57.240Z,18.10
2022-09-24T12:35:36.804Z,18.20
2022-09-24T12:38:18.435Z,18.40
2022-09-24T12:40:54.408Z,18.90
2022-09-24T12:43:44.247Z,19.20
2022-09-24T12:46:23.257Z,19.10
2022-09-24T12:48:51.844Z,19.10
2022-09-24T12:51:22.611Z,18.90
2022-09-24T12:53:58.810Z,19.40
2022-09-24T12:56:30.148Z,19.50
2022-09-24T12:58:57.874Z,19.10
2022-09-24T13:01:24.715Z,19.30
2022-09-24T13:04:16.685Z,20.40
2022-09-24T13:06:47.882Z,20.00
2022-09-24T13:09:29.602Z,19.80
2022-09-24T13:12:18.084Z,20.00
2022-09-24T13:15:02.690Z,20.70
2022-09-24T13:17:32.412Z,21.20
2022-09-24T13:20:18.562Z,21.00
2022-09-24T13:22:58.076Z,21.40
2022-09-24T13:25:26.486Z,20.30
2022-09-24T13:28:18.745Z,21.00
2022-09-24T13:30:50.054Z,20.60
2022-09-24T13:33:37.367Z,21.20
2022-09-24T13:36:31.375Z,20.50
2022-09-24T13:39:25.020Z,21.20
2022-09-24T13:42:23.560Z,21.40
2022-09-24T13:44:58.210Z,21.10
2022-09-24T13:47:29.238Z,20.80
2022-09-24T13:50:07.377Z,20.10
2022-09-24T13:52:40.573Z,20.00
2022-09-24T13:55:21.676Z,19.90
2022-09-24T13:57:48.788Z,19.60
2022-09-24T14:00:20.818Z,20.10
2022-09-24T14:03:17.689Z,19.70
2022-09-24T14:05:44.751Z,20.00
2022-09-24T14:08:15.215Z,19.80
2022-09-24T14:10:42.858Z,20.00
2022-09-24T14:13:23.145Z,19.80
2022-09-24T14:15:52.257Z,19.70
2022-09-24T14:18:19.283Z,19.50
2022-09-24T14:21:13.780Z,19.00
2022-09-24T14:23:43.502Z,18.70
2022-09-24T14:26:34.636Z,18.80
2022-09-24T14:29:06.933Z,18.90
2022-09-24T14:31:43.023Z,19.40
2022-09-24T14:34:23.165Z,20.10
2022-09-24T14:36:51.325Z,20.50
2022-09-24T14:39:25.030Z,19.90
2022-09-24T14:41:52.563Z,19.50
2022-09-24T14:44:25.631Z,19.70
2022-09-24T14:46:55.845Z,20.30
2022-09-24T14:49:29.191Z,19.50
2022-09-24T14:52:04.167Z,19.00
2022-09-24T14:54:31.005Z,18.90
2022-09-24T14:57:22.571Z,18.60
2022-09-24T14:59:49.537Z,18.60
2022-09-24T15:02:35.051Z,18.40
2022-09-24T15:05:06.765Z,18.50
2022-09-24T15:07:35.320Z,18.70
2022-09-24T15:10:04.801Z,19.00
2022-09-24T15:12:35.488Z,18.70
2022-09-24T15:15:05.504Z,18.90
2022-09-24T15:17:34.527Z,18.70
2022-09-24T15:20:02.620Z,18.80
2022-09-24T15:22:30.769Z,18.80
2022-09-24T15:25:01.954Z,18.80
2022-09-24T15:27:32.257Z,18.70
2022-09-24T15:30:01.555Z,18.50
2022-09-24T15:32:35.129Z,18.20
2022-09-24T15:35:07.457Z,18.40
2022-09-24T15:37:34.416Z,18.10
2022-09-24T15:40:16.164Z,18.30
2022-09-24T15:42:43.067Z,18.40
2022-09-24T15:45:24.022Z,19.00
2022-09-24T15:47:52.344Z,18.30
2022-09-24T15:50:23.724Z,18.20
2022-09-24T15:52:53.495Z,18.50
2022-09-24T15:55:22.035Z,18.60
2022-09-24T15:57:48.811Z,18.50
2022-09-24T16:00:21.490Z,18.60
2022-09-24T16:02:52.630Z,18.60
2022-09-24T16:05:20.480Z,18.50
2022-09-24T16:07:47.569Z,18.50
2022-09-24T16:10:15.114Z,18.20
2022-09-24T16:12:42.998Z,18.40
2022-09-24T16:15:14.818Z,17.90
2022-09-24T16:17:41.738Z,17.70
2022-09-24T16:20:09.879Z,17.70
2022-09-24T16:22:36.667Z,17.40
2022-09-24T16:25:03.594Z,17.40
2022-09-24T16:27:31.465Z,17.30
2022-09-24T16:29:58.368Z,17.10
2022-09-24T16:32:26.143Z,17.30
2022-09-24T16:34:54.880Z,17.20
2022-09-24T16:37:21.773Z,16.90
2022-09-24T16:39:48.482Z,16.80
2022-09-24T16:42:15.506Z,16.70
2022-09-24T16:44:42.239Z,17.60
2022-09-24T16:47:08.953Z,16.50
2022-09-24T16:49:40.904Z,17.40
2022-09-24T16:52:07.626Z,16.50
2022-09-24T16:54:34.484Z,16.50
2022-09-24T16:57:03.340Z,16.50
2022-09-24T16:59:30.086Z,16.50
2022-09-24T17:01:56.869Z,16.50
2022-09-24T17:04:24.044Z,16.60
2022-09-24T17:06:54.707Z,16.70
2022-09-24T17:09:40.298Z,16.80
2022-09-24T17:12:07.628Z,16.90
2022-09-24T17:14:39.129Z,16.70
2022-09-24T17:17:06.768Z,16.70
2022-09-24T17:19:33.497Z,16.70
2022-09-24T17:22:00.264Z,16.70
2022-09-24T17:24:27.130Z,16.70
2022-09-24T17:26:54.304Z,16.70
2022-09-24T17:29:22.404Z,16.70
2022-09-24T17:31:49.397Z,16.50
2022-09-24T17:34:16.154Z,16.50
2022-09-24T17:36:43.245Z,17.60
2022-09-24T17:39:12.876Z,16.50
2022-09-24T17:41:39.700Z,16.60
2022-09-24T17:44:07.236Z,16.50
2022-09-24T17:46:35.912Z,16.70
2022-09-24T17:49:03.002Z,16.50
2022-09-24T17:51:32.846Z,17.80
2022-09-24T17:54:01.978Z,16.50
2022-09-24T17:56:31.990Z,16.40
2022-09-24T17:58:59.370Z,16.50
2022-09-24T18:01:28.667Z,17.30
2022-09-24T18:03:57.774Z,16.50
2022-09-24T18:06:30.540Z,16.40
2022-09-24T18:09:01.094Z,17.00
2022-09-24T18:11:30.411Z,16.20
2022-09-24T18:13:59.256Z,16.20
2022-09-24T18:16:28.663Z,16.20
2022-09-24T18:18:57.114Z,16.30
2022-09-24T18:21:24.654Z,16.00
2022-09-24T18:23:55.889Z,16.10
2022-09-24T18:26:32.471Z,15.90
2022-09-24T18:29:00.985Z,16.00
2022-09-24T18:31:29.992Z,15.90
2022-09-24T18:34:06.150Z,16.30
2022-09-24T18:36:35.932Z,16.00
2022-09-24T18:39:04.015Z,16.80
2022-09-24T18:41:31.035Z,15.60
2022-09-24T18:44:01.435Z,15.60
2022-09-24T18:46:30.746Z,15.50
2022-09-24T18:48:58.919Z,15.40
2022-09-24T18:51:32.857Z,15.90
2022-09-24T18:54:05.979Z,15.30
2022-09-24T18:56:33.675Z,15.20
2022-09-24T18:59:13.705Z,15.20
2022-09-24T19:01:42.287Z,15.20
2022-09-24T19:04:10.800Z,15.20
2022-09-24T19:06:39.620Z,15.10
2022-09-24T19:09:07.074Z,15.10
2022-09-24T19:11:34.572Z,15.00
2022-09-24T19:14:04.819Z,15.00
2022-09-24T19:16:32.024Z,14.90
2022-09-24T19:19:00.725Z,15.70
2022-09-24T19:21:27.897Z,15.60
2022-09-24T19:23:56.351Z,15.00
2022-09-24T19:26:30.238Z,15.00
2022-09-24T19:28:57.865Z,15.00
2022-09-24T19:31:31.436Z,15.00
2022-09-24T19:34:02.858Z,15.10
2022-09-24T19:36:30.329Z,15.00
2022-09-24T19:38:57.906Z,15.90
2022-09-24T19:41:26.947Z,15.10
2022-09-24T19:43:56.902Z,15.20
2022-09-24T19:46:25.603Z,15.20
2022-09-24T19:48:53.852Z,16.20
2022-09-24T19:51:26.115Z,15.90
2022-09-24T19:53:55.669Z,15.20
2022-09-24T19:56:24.714Z,15.30
2022-09-24T19:58:54.177Z,15.30
2022-09-24T20:01:23.402Z,15.20
2022-09-24T20:03:50.819Z,15.60
2022-09-24T20:06:22.971Z,15.10
2022-09-24T20:08:50.161Z,15.40
2022-09-24T20:11:20.905Z,15.10
2022-09-24T20:13:49.321Z,15.20
2022-09-24T20:16:19.695Z,15.70
2022-09-24T20:18:47.918Z,15.20
2022-09-24T20:21:17.773Z,15.30
2022-09-24T20:23:46.249Z,15.70
2022-09-24T20:26:32.628Z,15.30
2022-09-24T20:28:59.948Z,15.30
2022-09-24T20:31:26.740Z,16.10
2022-09-24T20:33:53.620Z,15.20
2022-09-24T20:36:24.385Z,16.00
2022-09-24T20:38:52.975Z,15.00
2022-09-24T20:41:24.605Z,14.90
2022-09-24T20:43:55.548Z,14.90
2022-09-24T20:46:24.870Z,14.90
2022-09-24T20:48:52.648Z,14.90
2022-09-24T20:51:21.454Z,16.70
2022-09-24T20:53:49.730Z,14.90
2022-09-24T20:56:18.226Z,15.40
2022-09-24T20:58:45.784Z,15.10
2022-09-24T21:01:12.620Z,15.00
2022-09-24T21:03:45.251Z,15.10
2022-09-24T21:06:12.716Z,15.80
2022-09-24T21:08:41.903Z,15.00
2022-09-24T21:11:10.842Z,15.00
2022-09-24T21:13:43.042Z,15.10
2022-09-24T21:16:10.267Z,17.20
2022-09-24T21:18:44.449Z,15.20
2022-09-24T21:21:12.453Z,15.20
2022-09-24T21:23:40.058Z,15.10
2022-09-24T21:26:21.512Z,15.90
2022-09-24T21:28:50.572Z,15.20
2022-09-24T21:31:23.229Z,15.00
2022-09-24T21:33:54.504Z,14.70
2022-09-24T21:36:24.342Z,14.60
2022-09-24T21:39:02.728Z,14.60
2022-09-24T21:41:32.732Z,14.30
2022-09-24T21:44:00.329Z,15.20
2022-09-24T21:46:30.096Z,13.90
2022-09-24T21:48:57.560Z,13.70
2022-09-24T21:51:26.958Z,13.70
2022-09-24T21:54:02.324Z,13.60
2022-09-24T21:56:30.493Z,13.60
2022-09-24T21:58:57.636Z,13.70
2022-09-24T22:01:27.829Z,13.50
2022-09-24T22:03:59.101Z,13.70
2022-09-24T22:06:28.961Z,13.40
2022-09-24T22:09:04.044Z,13.40
2022-09-24T22:11:31.205Z,13.60
2022-09-24T22:14:02.302Z,13.60
2022-09-24T22:16:30.996Z,13.70
2022-09-24T22:18:58.350Z,13.60
2022-09-24T22:21:25.558Z,13.90
2022-09-24T22:23:52.261Z,13.80
2022-09-24T22:26:19.261Z,13.90
2022-09-24T22:28:46.178Z,13.90
2022-09-24T22:31:18.218Z,13.80
2022-09-24T22:34:04.175Z,13.90
2022-09-24T22:36:33.254Z,14.40
2022-09-24T22:39:01.113Z,15.90
2022-09-24T22:41:29.704Z,14.10
2022-09-24T22:43:57.551Z,13.90
2022-09-24T22:46:27.472Z,14.20
2022-09-24T22:48:57.842Z,14.10
2022-09-24T22:51:27.526Z,14.80
2022-09-24T22:53:55.582Z,14.50
2022-09-24T22:56:24.291Z,16.70
2022-09-24T22:59:00.973Z,14.10
2022-09-24T23:01:38.896Z,15.00
2022-09-24T23:04:06.156Z,14.10
2022-09-24T23:06:33.977Z,14.00
2022-09-24T23:09:01.304Z,13.80
2022-09-24T23:11:33.185Z,13.90
2022-09-24T23:14:05.859Z,14.00
2022-09-24T23:16:35.156Z,13.90
2022-09-24T23:19:07.087Z,13.90
2022-09-24T23:21:34.353Z,14.00
2022-09-24T23:24:04.520Z,13.90
2022-09-24T23:26:31.941Z,13.70
2022-09-24T23:29:00.310Z,13.80
2022-09-24T23:31:31.409Z,13.70
2022-09-24T23:33:59.418Z,13.80
2022-09-24T23:36:27.973Z,13.80
2022-09-24T23:38:54.838Z,14.40
2022-09-24T23:41:21.910Z,13.90
2022-09-24T23:43:49.298Z,14.00
2022-09-24T23:46:16.649Z,13.90
2022-09-24T23:48:44.132Z,14.00
2022-09-24T23:51:11.700Z,14.30
2022-09-24T23:53:38.512Z,14.00
2022-09-24T23:56:07.175Z,16.20
2022-09-24T23:58:34.392Z,14.10
